sensor_id;sensor_type;location;lat;lon;timestamp;P1;durP1;ratioP1;P2;durP2;ratioP2
77402;SDS011;66472;53.046;8.656;2023-04-06T00:02:22;11.40;;;7.88;;
77402;SDS011;66472;53.046;8.656;2023-04-06T00:07:38;11.93;;;8.53;;
77402;SDS011;66472;53.046;8.656;2023-04-06T00:12:33;10.27;;;7.97;;
77402;SDS011;66472;53.046;8.656;2023-04-06T00:17:28;9.43;;;8.07;;
77402;SDS011;66472;53.046;8.656;2023-04-06T00:22:24;14.43;;;8.33;;
77402;SDS011;66472;53.046;8.656;2023-04-06T00:27:19;10.57;;;8.40;;
77402;SDS011;66472;53.046;8.656;2023-04-06T00:32:15;9.80;;;8.47;;
77402;SDS011;66472;53.046;8.656;2023-04-06T00:37:11;12.37;;;7.57;;
77402;SDS011;66472;53.046;8.656;2023-04-06T00:42:07;10.83;;;8.43;;
77402;SDS011;66472;53.046;8.656;2023-04-06T00:47:05;10.10;;;8.27;;
77402;SDS011;66472;53.046;8.656;2023-04-06T00:52:01;11.07;;;8.97;;
77402;SDS011;66472;53.046;8.656;2023-04-06T00:56:56;12.27;;;9.17;;
77402;SDS011;66472;53.046;8.656;2023-04-06T01:01:53;16.77;;;9.67;;
77402;SDS011;66472;53.046;8.656;2023-04-06T01:07:12;11.30;;;8.63;;
77402;SDS011;66472;53.046;8.656;2023-04-06T01:12:15;10.23;;;8.53;;
77402;SDS011;66472;53.046;8.656;2023-04-06T01:17:10;12.17;;;9.30;;
77402;SDS011;66472;53.046;8.656;2023-04-06T01:22:06;21.53;;;9.33;;
77402;SDS011;66472;53.046;8.656;2023-04-06T01:27:02;11.68;;;9.23;;
77402;SDS011;66472;53.046;8.656;2023-04-06T01:32:06;10.33;;;9.23;;
77402;SDS011;66472;53.046;8.656;2023-04-06T01:37:09;11.13;;;9.53;;
77402;SDS011;66472;53.046;8.656;2023-04-06T01:42:04;11.23;;;9.77;;
77402;SDS011;66472;53.046;8.656;2023-04-06T01:47:03;12.23;;;10.50;;
77402;SDS011;66472;53.046;8.656;2023-04-06T01:51:58;14.47;;;9.77;;
77402;SDS011;66472;53.046;8.656;2023-04-06T01:56:54;14.33;;;10.17;;
77402;SDS011;66472;53.046;8.656;2023-04-06T02:01:57;14.87;;;10.50;;
77402;SDS011;66472;53.046;8.656;2023-04-06T02:06:55;12.20;;;10.73;;
77402;SDS011;66472;53.046;8.656;2023-04-06T02:11:53;15.03;;;10.70;;
77402;SDS011;66472;53.046;8.656;2023-04-06T02:16:48;13.50;;;10.67;;
77402;SDS011;66472;53.046;8.656;2023-04-06T02:21:44;16.23;;;11.83;;
77402;SDS011;66472;53.046;8.656;2023-04-06T02:26:40;15.33;;;11.83;;
77402;SDS011;66472;53.046;8.656;2023-04-06T02:31:35;12.77;;;10.50;;
77402;SDS011;66472;53.046;8.656;2023-04-06T02:36:32;12.53;;;10.67;;
77402;SDS011;66472;53.046;8.656;2023-04-06T02:41:27;11.23;;;9.33;;
77402;SDS011;66472;53.046;8.656;2023-04-06T02:46:24;10.87;;;9.60;;
77402;SDS011;66472;53.046;8.656;2023-04-06T02:51:19;10.30;;;9.17;;
77402;SDS011;66472;53.046;8.656;2023-04-06T02:56:20;10.83;;;9.30;;
77402;SDS011;66472;53.046;8.656;2023-04-06T03:01:19;12.53;;;9.63;;
77402;SDS011;66472;53.046;8.656;2023-04-06T03:06:20;11.53;;;9.30;;
77402;SDS011;66472;53.046;8.656;2023-04-06T03:11:19;10.40;;;8.73;;
77402;SDS011;66472;53.046;8.656;2023-04-06T03:16:15;10.10;;;7.57;;
77402;SDS011;66472;53.046;8.656;2023-04-06T03:21:11;10.77;;;8.47;;
77402;SDS011;66472;53.046;8.656;2023-04-06T03:26:17;9.67;;;8.03;;
77402;SDS011;66472;53.046;8.656;2023-04-06T03:31:12;18.17;;;8.93;;
77402;SDS011;66472;53.046;8.656;2023-04-06T03:36:20;21.77;;;8.70;;
77402;SDS011;66472;53.046;8.656;2023-04-06T03:41:16;9.80;;;7.70;;
77402;SDS011;66472;53.046;8.656;2023-04-06T03:46:19;13.57;;;7.57;;
77402;SDS011;66472;53.046;8.656;2023-04-06T03:51:18;13.03;;;8.47;;
77402;SDS011;66472;53.046;8.656;2023-04-06T03:56:14;16.80;;;8.90;;
77402;SDS011;66472;53.046;8.656;2023-04-06T04:01:09;8.63;;;7.80;;
77402;SDS011;66472;53.046;8.656;2023-04-06T04:06:05;10.73;;;8.27;;
77402;SDS011;66472;53.046;8.656;2023-04-06T04:11:01;10.57;;;8.23;;
77402;SDS011;66472;53.046;8.656;2023-04-06T04:15:58;10.40;;;8.23;;
77402;SDS011;66472;53.046;8.656;2023-04-06T04:20:53;8.90;;;8.00;;
77402;SDS011;66472;53.046;8.656;2023-04-06T04:25:51;11.77;;;9.00;;
77402;SDS011;66472;53.046;8.656;2023-04-06T04:30:46;10.13;;;8.23;;
77402;SDS011;66472;53.046;8.656;2023-04-06T04:35:43;11.80;;;7.57;;
77402;SDS011;66472;53.046;8.656;2023-04-06T04:40:42;10.97;;;8.83;;
77402;SDS011;66472;53.046;8.656;2023-04-06T04:45:40;11.97;;;8.50;;
77402;SDS011;66472;53.046;8.656;2023-04-06T04:50:45;8.90;;;7.83;;
77402;SDS011;66472;53.046;8.656;2023-04-06T04:55:42;10.40;;;8.23;;
77402;SDS011;66472;53.046;8.656;2023-04-06T05:00:39;11.87;;;8.00;;
77402;SDS011;66472;53.046;8.656;2023-04-06T05:05:34;10.23;;;8.37;;
77402;SDS011;66472;53.046;8.656;2023-04-06T05:10:31;10.93;;;9.03;;
77402;SDS011;66472;53.046;8.656;2023-04-06T05:15:29;11.50;;;8.83;;
77402;SDS011;66472;53.046;8.656;2023-04-06T05:20:32;9.30;;;8.17;;
77402;SDS011;66472;53.046;8.656;2023-04-06T05:25:29;8.77;;;7.13;;
77402;SDS011;66472;53.046;8.656;2023-04-06T05:30:29;10.37;;;8.60;;
77402;SDS011;66472;53.046;8.656;2023-04-06T05:35:26;10.97;;;8.77;;
77402;SDS011;66472;53.046;8.656;2023-04-06T05:40:26;11.47;;;9.00;;
77402;SDS011;66472;53.046;8.656;2023-04-06T05:45:22;10.37;;;7.83;;
77402;SDS011;66472;53.046;8.656;2023-04-06T05:50:22;9.13;;;7.67;;
77402;SDS011;66472;53.046;8.656;2023-04-06T05:55:17;9.23;;;7.37;;
77402;SDS011;66472;53.046;8.656;2023-04-06T06:00:18;12.73;;;9.47;;
77402;SDS011;66472;53.046;8.656;2023-04-06T06:05:24;8.27;;;7.33;;
77402;SDS011;66472;53.046;8.656;2023-04-06T06:10:20;15.87;;;8.43;;
77402;SDS011;66472;53.046;8.656;2023-04-06T06:15:15;8.97;;;7.27;;
77402;SDS011;66472;53.046;8.656;2023-04-06T06:20:14;7.63;;;6.93;;
77402;SDS011;66472;53.046;8.656;2023-04-06T06:25:11;10.77;;;7.23;;
77402;SDS011;66472;53.046;8.656;2023-04-06T06:30:07;10.33;;;7.37;;
77402;SDS011;66472;53.046;8.656;2023-04-06T06:35:05;8.50;;;7.30;;
77402;SDS011;66472;53.046;8.656;2023-04-06T06:40:01;8.33;;;6.00;;
77402;SDS011;66472;53.046;8.656;2023-04-06T06:44:59;7.50;;;6.73;;
77402;SDS011;66472;53.046;8.656;2023-04-06T06:49:55;6.47;;;5.83;;
77402;SDS011;66472;53.046;8.656;2023-04-06T06:54:50;7.77;;;7.00;;
77402;SDS011;66472;53.046;8.656;2023-04-06T06:59:48;6.67;;;6.10;;
77402;SDS011;66472;53.046;8.656;2023-04-06T07:04:47;9.37;;;6.93;;
77402;SDS011;66472;53.046;8.656;2023-04-06T07:09:42;8.60;;;6.27;;
77402;SDS011;66472;53.046;8.656;2023-04-06T07:14:38;13.23;;;6.53;;
77402;SDS011;66472;53.046;8.656;2023-04-06T07:19:33;9.37;;;7.30;;
77402;SDS011;66472;53.046;8.656;2023-04-06T07:24:29;6.67;;;5.67;;
77402;SDS011;66472;53.046;8.656;2023-04-06T07:29:24;7.23;;;6.53;;
77402;SDS011;66472;53.046;8.656;2023-04-06T07:34:20;9.50;;;6.83;;
77402;SDS011;66472;53.046;8.656;2023-04-06T07:39:16;7.33;;;6.67;;
77402;SDS011;66472;53.046;8.656;2023-04-06T07:44:11;7.30;;;6.43;;
77402;SDS011;66472;53.046;8.656;2023-04-06T07:49:07;6.63;;;5.93;;
77402;SDS011;66472;53.046;8.656;2023-04-06T07:54:04;8.07;;;7.27;;
77402;SDS011;66472;53.046;8.656;2023-04-06T07:59:00;8.07;;;6.80;;
77402;SDS011;66472;53.046;8.656;2023-04-06T08:03:56;12.83;;;8.43;;
77402;SDS011;66472;53.046;8.656;2023-04-06T08:08:52;9.43;;;7.53;;
77402;SDS011;66472;53.046;8.656;2023-04-06T08:13:47;8.30;;;7.28;;
77402;SDS011;66472;53.046;8.656;2023-04-06T08:18:42;10.13;;;6.47;;
77402;SDS011;66472;53.046;8.656;2023-04-06T08:23:37;6.88;;;6.22;;
77402;SDS011;66472;53.046;8.656;2023-04-06T08:28:33;8.13;;;7.30;;
77402;SDS011;66472;53.046;8.656;2023-04-06T08:33:29;7.63;;;6.87;;
77402;SDS011;66472;53.046;8.656;2023-04-06T08:38:25;7.93;;;7.13;;
77402;SDS011;66472;53.046;8.656;2023-04-06T08:43:20;8.73;;;6.97;;
77402;SDS011;66472;53.046;8.656;2023-04-06T08:48:17;8.13;;;7.37;;
77402;SDS011;66472;53.046;8.656;2023-04-06T08:53:13;8.27;;;7.30;;
77402;SDS011;66472;53.046;8.656;2023-04-06T08:58:09;9.70;;;8.10;;
77402;SDS011;66472;53.046;8.656;2023-04-06T09:03:04;8.17;;;7.47;;
77402;SDS011;66472;53.046;8.656;2023-04-06T09:08:00;9.20;;;7.33;;
77402;SDS011;66472;53.046;8.656;2023-04-06T09:13:02;8.17;;;7.47;;
77402;SDS011;66472;53.046;8.656;2023-04-06T09:17:57;7.90;;;7.10;;
77402;SDS011;66472;53.046;8.656;2023-04-06T09:22:53;10.07;;;7.37;;
77402;SDS011;66472;53.046;8.656;2023-04-06T09:27:57;10.77;;;7.10;;
77402;SDS011;66472;53.046;8.656;2023-04-06T09:32:57;8.83;;;7.97;;
77402;SDS011;66472;53.046;8.656;2023-04-06T09:37:52;9.17;;;7.93;;
77402;SDS011;66472;53.046;8.656;2023-04-06T09:42:50;8.20;;;7.50;;
77402;SDS011;66472;53.046;8.656;2023-04-06T09:47:47;8.27;;;7.37;;
77402;SDS011;66472;53.046;8.656;2023-04-06T09:52:48;9.07;;;7.30;;
77402;SDS011;66472;53.046;8.656;2023-04-06T09:57:55;7.83;;;7.03;;
77402;SDS011;66472;53.046;8.656;2023-04-06T10:02:59;8.10;;;7.30;;
77402;SDS011;66472;53.046;8.656;2023-04-06T10:08:00;9.97;;;8.00;;
77402;SDS011;66472;53.046;8.656;2023-04-06T10:12:57;11.13;;;8.17;;
77402;SDS011;66472;53.046;8.656;2023-04-06T10:17:53;11.13;;;8.50;;
77402;SDS011;66472;53.046;8.656;2023-04-06T10:22:59;10.77;;;9.07;;
77402;SDS011;66472;53.046;8.656;2023-04-06T10:28:15;10.13;;;8.23;;
77402;SDS011;66472;53.046;8.656;2023-04-06T10:33:14;9.17;;;8.23;;
77402;SDS011;66472;53.046;8.656;2023-04-06T10:38:09;10.80;;;9.07;;
77402;SDS011;66472;53.046;8.656;2023-04-06T10:43:10;10.40;;;8.67;;
77402;SDS011;66472;53.046;8.656;2023-04-06T10:48:15;9.80;;;8.67;;
77402;SDS011;66472;53.046;8.656;2023-04-06T10:53:11;9.83;;;8.53;;
77402;SDS011;66472;53.046;8.656;2023-04-06T10:58:06;13.48;;;9.52;;
77402;SDS011;66472;53.046;8.656;2023-04-06T11:03:02;10.40;;;9.23;;
77402;SDS011;66472;53.046;8.656;2023-04-06T11:07:57;10.17;;;8.30;;
77402;SDS011;66472;53.046;8.656;2023-04-06T11:12:56;10.17;;;8.00;;
77402;SDS011;66472;53.046;8.656;2023-04-06T11:17:51;10.50;;;8.80;;
77402;SDS011;66472;53.046;8.656;2023-04-06T11:22:50;16.33;;;9.03;;
77402;SDS011;66472;53.046;8.656;2023-04-06T11:27:46;10.77;;;8.97;;
77402;SDS011;66472;53.046;8.656;2023-04-06T11:32:42;14.37;;;10.13;;
77402;SDS011;66472;53.046;8.656;2023-04-06T11:37:38;13.80;;;9.33;;
77402;SDS011;66472;53.046;8.656;2023-04-06T11:42:34;11.27;;;8.67;;
77402;SDS011;66472;53.046;8.656;2023-04-06T11:47:30;11.50;;;9.23;;
77402;SDS011;66472;53.046;8.656;2023-04-06T11:52:27;10.33;;;8.57;;
77402;SDS011;66472;53.046;8.656;2023-04-06T11:57:22;10.13;;;8.97;;
77402;SDS011;66472;53.046;8.656;2023-04-06T12:02:21;12.63;;;9.80;;
77402;SDS011;66472;53.046;8.656;2023-04-06T12:07:16;13.13;;;9.73;;
77402;SDS011;66472;53.046;8.656;2023-04-06T12:12:11;10.37;;;9.27;;
77402;SDS011;66472;53.046;8.656;2023-04-06T12:17:07;12.70;;;10.33;;
77402;SDS011;66472;53.046;8.656;2023-04-06T12:22:02;13.80;;;10.80;;
77402;SDS011;66472;53.046;8.656;2023-04-06T12:26:57;11.47;;;10.37;;
77402;SDS011;66472;53.046;8.656;2023-04-06T12:31:53;10.57;;;9.27;;
77402;SDS011;66472;53.046;8.656;2023-04-06T12:36:48;9.57;;;8.60;;
77402;SDS011;66472;53.046;8.656;2023-04-06T12:41:43;12.37;;;9.87;;
77402;SDS011;66472;53.046;8.656;2023-04-06T12:46:39;11.37;;;8.67;;
77402;SDS011;66472;53.046;8.656;2023-04-06T12:51:35;10.80;;;9.70;;
77402;SDS011;66472;53.046;8.656;2023-04-06T12:56:31;10.63;;;9.00;;
77402;SDS011;66472;53.046;8.656;2023-04-06T13:01:26;11.53;;;9.77;;
77402;SDS011;66472;53.046;8.656;2023-04-06T13:06:23;11.03;;;8.77;;
77402;SDS011;66472;53.046;8.656;2023-04-06T13:11:22;8.90;;;7.90;;
77402;SDS011;66472;53.046;8.656;2023-04-06T13:16:19;9.17;;;8.33;;
77402;SDS011;66472;53.046;8.656;2023-04-06T13:21:14;10.87;;;8.07;;
77402;SDS011;66472;53.046;8.656;2023-04-06T13:26:11;10.83;;;8.30;;
77402;SDS011;66472;53.046;8.656;2023-04-06T13:31:08;9.77;;;8.73;;
77402;SDS011;66472;53.046;8.656;2023-04-06T13:36:04;9.87;;;8.87;;
77402;SDS011;66472;53.046;8.656;2023-04-06T13:41:01;10.67;;;8.83;;
77402;SDS011;66472;53.046;8.656;2023-04-06T13:45:56;9.63;;;8.70;;
77402;SDS011;66472;53.046;8.656;2023-04-06T13:50:53;11.30;;;9.30;;
77402;SDS011;66472;53.046;8.656;2023-04-06T13:55:52;12.80;;;11.70;;
77402;SDS011;66472;53.046;8.656;2023-04-06T14:00:48;14.23;;;12.10;;
77402;SDS011;66472;53.046;8.656;2023-04-06T14:05:43;11.20;;;9.63;;
77402;SDS011;66472;53.046;8.656;2023-04-06T14:10:39;13.47;;;10.60;;
77402;SDS011;66472;53.046;8.656;2023-04-06T14:15:35;11.33;;;8.30;;
77402;SDS011;66472;53.046;8.656;2023-04-06T14:20:31;13.17;;;8.83;;
77402;SDS011;66472;53.046;8.656;2023-04-06T14:25:27;13.90;;;9.10;;
77402;SDS011;66472;53.046;8.656;2023-04-06T14:30:22;11.23;;;9.43;;
77402;SDS011;66472;53.046;8.656;2023-04-06T14:35:17;13.17;;;9.33;;
77402;SDS011;66472;53.046;8.656;2023-04-06T14:40:13;10.23;;;8.57;;
77402;SDS011;66472;53.046;8.656;2023-04-06T14:45:08;9.23;;;8.33;;
77402;SDS011;66472;53.046;8.656;2023-04-06T14:50:04;10.33;;;9.27;;
77402;SDS011;66472;53.046;8.656;2023-04-06T14:54:59;13.63;;;9.43;;
77402;SDS011;66472;53.046;8.656;2023-04-06T14:59:54;11.90;;;10.10;;
77402;SDS011;66472;53.046;8.656;2023-04-06T15:04:50;11.10;;;9.90;;
77402;SDS011;66472;53.046;8.656;2023-04-06T15:09:45;11.60;;;10.40;;
77402;SDS011;66472;53.046;8.656;2023-04-06T15:14:40;10.40;;;9.07;;
77402;SDS011;66472;53.046;8.656;2023-04-06T15:19:36;11.00;;;9.93;;
77402;SDS011;66472;53.046;8.656;2023-04-06T15:24:31;10.87;;;9.77;;
77402;SDS011;66472;53.046;8.656;2023-04-06T15:29:26;13.77;;;10.37;;
77402;SDS011;66472;53.046;8.656;2023-04-06T15:34:22;17.40;;;10.23;;
77402;SDS011;66472;53.046;8.656;2023-04-06T15:39:17;13.40;;;9.27;;
77402;SDS011;66472;53.046;8.656;2023-04-06T15:44:12;10.48;;;9.48;;
77402;SDS011;66472;53.046;8.656;2023-04-06T15:49:08;11.57;;;9.82;;
77402;SDS011;66472;53.046;8.656;2023-04-06T15:54:03;11.83;;;9.87;;
77402;SDS011;66472;53.046;8.656;2023-04-06T15:58:58;10.47;;;9.23;;
77402;SDS011;66472;53.046;8.656;2023-04-06T16:03:54;11.27;;;8.97;;
77402;SDS011;66472;53.046;8.656;2023-04-06T16:08:49;10.90;;;8.93;;
77402;SDS011;66472;53.046;8.656;2023-04-06T16:13:45;12.65;;;10.05;;
77402;SDS011;66472;53.046;8.656;2023-04-06T16:18:40;13.17;;;8.80;;
77402;SDS011;66472;53.046;8.656;2023-04-06T16:23:35;11.53;;;9.17;;
77402;SDS011;66472;53.046;8.656;2023-04-06T16:28:31;12.07;;;9.30;;
77402;SDS011;66472;53.046;8.656;2023-04-06T16:33:27;11.53;;;9.53;;
77402;SDS011;66472;53.046;8.656;2023-04-06T16:38:22;12.03;;;10.17;;
77402;SDS011;66472;53.046;8.656;2023-04-06T16:43:18;10.67;;;9.43;;
77402;SDS011;66472;53.046;8.656;2023-04-06T16:48:13;12.37;;;9.77;;
77402;SDS011;66472;53.046;8.656;2023-04-06T16:53:08;13.45;;;8.63;;
77402;SDS011;66472;53.046;8.656;2023-04-06T16:58:05;16.33;;;8.83;;
77402;SDS011;66472;53.046;8.656;2023-04-06T17:03:00;10.60;;;8.90;;
77402;SDS011;66472;53.046;8.656;2023-04-06T17:07:56;11.87;;;8.90;;
77402;SDS011;66472;53.046;8.656;2023-04-06T17:12:51;11.00;;;9.40;;
77402;SDS011;66472;53.046;8.656;2023-04-06T17:17:46;11.33;;;8.87;;
77402;SDS011;66472;53.046;8.656;2023-04-06T17:22:42;12.73;;;9.20;;
77402;SDS011;66472;53.046;8.656;2023-04-06T17:27:37;12.97;;;9.43;;
77402;SDS011;66472;53.046;8.656;2023-04-06T17:32:32;10.52;;;9.38;;
77402;SDS011;66472;53.046;8.656;2023-04-06T17:37:28;14.60;;;9.87;;
77402;SDS011;66472;53.046;8.656;2023-04-06T17:42:23;11.27;;;10.10;;
77402;SDS011;66472;53.046;8.656;2023-04-06T17:47:19;12.07;;;9.33;;
77402;SDS011;66472;53.046;8.656;2023-04-06T17:52:14;11.67;;;9.53;;
77402;SDS011;66472;53.046;8.656;2023-04-06T17:57:09;11.87;;;10.03;;
77402;SDS011;66472;53.046;8.656;2023-04-06T18:02:05;13.43;;;10.07;;
77402;SDS011;66472;53.046;8.656;2023-04-06T18:07:00;12.43;;;9.70;;
77402;SDS011;66472;53.046;8.656;2023-04-06T18:11:56;10.80;;;9.80;;
77402;SDS011;66472;53.046;8.656;2023-04-06T18:16:51;13.57;;;9.77;;
77402;SDS011;66472;53.046;8.656;2023-04-06T18:21:47;17.70;;;10.10;;
77402;SDS011;66472;53.046;8.656;2023-04-06T18:26:42;13.80;;;10.60;;
77402;SDS011;66472;53.046;8.656;2023-04-06T18:31:37;14.97;;;10.27;;
77402;SDS011;66472;53.046;8.656;2023-04-06T18:36:33;12.60;;;9.70;;
77402;SDS011;66472;53.046;8.656;2023-04-06T18:41:28;14.73;;;8.93;;
77402;SDS011;66472;53.046;8.656;2023-04-06T18:46:23;14.77;;;9.43;;
77402;SDS011;66472;53.046;8.656;2023-04-06T18:51:19;14.07;;;10.23;;
77402;SDS011;66472;53.046;8.656;2023-04-06T18:56:15;14.80;;;10.07;;
77402;SDS011;66472;53.046;8.656;2023-04-06T19:01:25;15.77;;;10.63;;
77402;SDS011;66472;53.046;8.656;2023-04-06T19:06:21;14.60;;;10.60;;
77402;SDS011;66472;53.046;8.656;2023-04-06T19:11:16;17.97;;;12.27;;
77402;SDS011;66472;53.046;8.656;2023-04-06T19:16:11;15.90;;;10.67;;
77402;SDS011;66472;53.046;8.656;2023-04-06T19:21:14;16.30;;;10.77;;
77402;SDS011;66472;53.046;8.656;2023-04-06T19:26:14;13.17;;;10.30;;
77402;SDS011;66472;53.046;8.656;2023-04-06T19:31:10;12.03;;;10.00;;
77402;SDS011;66472;53.046;8.656;2023-04-06T19:36:11;12.70;;;9.40;;
77402;SDS011;66472;53.046;8.656;2023-04-06T19:41:07;14.47;;;10.37;;
77402;SDS011;66472;53.046;8.656;2023-04-06T19:46:02;13.47;;;9.30;;
77402;SDS011;66472;53.046;8.656;2023-04-06T19:50:58;20.30;;;10.40;;
77402;SDS011;66472;53.046;8.656;2023-04-06T19:55:56;13.38;;;9.60;;
77402;SDS011;66472;53.046;8.656;2023-04-06T20:00:52;11.70;;;8.50;;
77402;SDS011;66472;53.046;8.656;2023-04-06T20:05:47;14.37;;;8.97;;
77402;SDS011;66472;53.046;8.656;2023-04-06T20:10:43;11.15;;;8.43;;
77402;SDS011;66472;53.046;8.656;2023-04-06T20:15:39;10.53;;;9.13;;
77402;SDS011;66472;53.046;8.656;2023-04-06T20:20:40;11.30;;;8.27;;
77402;SDS011;66472;53.046;8.656;2023-04-06T20:25:39;10.27;;;8.23;;
77402;SDS011;66472;53.046;8.656;2023-04-06T20:30:34;11.37;;;8.77;;
77402;SDS011;66472;53.046;8.656;2023-04-06T20:35:30;13.03;;;8.90;;
77402;SDS011;66472;53.046;8.656;2023-04-06T20:40:26;12.67;;;8.90;;
77402;SDS011;66472;53.046;8.656;2023-04-06T20:45:22;17.33;;;8.70;;
77402;SDS011;66472;53.046;8.656;2023-04-06T20:50:19;11.40;;;8.37;;
77402;SDS011;66472;53.046;8.656;2023-04-06T20:55:15;10.77;;;8.00;;
77402;SDS011;66472;53.046;8.656;2023-04-06T21:00:10;15.20;;;8.57;;
77402;SDS011;66472;53.046;8.656;2023-04-06T21:05:07;12.70;;;8.50;;
77402;SDS011;66472;53.046;8.656;2023-04-06T21:10:03;11.23;;;8.27;;
77402;SDS011;66472;53.046;8.656;2023-04-06T21:14:58;12.57;;;8.87;;
77402;SDS011;66472;53.046;8.656;2023-04-06T21:19:53;17.63;;;8.95;;
77402;SDS011;66472;53.046;8.656;2023-04-06T21:24:49;11.13;;;7.90;;
77402;SDS011;66472;53.046;8.656;2023-04-06T21:29:44;13.27;;;9.25;;
77402;SDS011;66472;53.046;8.656;2023-04-06T21:34:43;12.50;;;8.83;;
77402;SDS011;66472;53.046;8.656;2023-04-06T21:39:40;11.37;;;8.33;;
77402;SDS011;66472;53.046;8.656;2023-04-06T21:44:35;11.63;;;7.90;;
77402;SDS011;66472;53.046;8.656;2023-04-06T21:49:30;12.45;;;8.43;;
77402;SDS011;66472;53.046;8.656;2023-04-06T21:54:30;11.97;;;7.70;;
77402;SDS011;66472;53.046;8.656;2023-04-06T21:59:25;13.43;;;7.87;;
77402;SDS011;66472;53.046;8.656;2023-04-06T22:04:20;12.87;;;8.33;;
77402;SDS011;66472;53.046;8.656;2023-04-06T22:09:17;10.43;;;8.20;;
77402;SDS011;66472;53.046;8.656;2023-04-06T22:14:12;9.75;;;8.38;;
77402;SDS011;66472;53.046;8.656;2023-04-06T22:19:08;10.00;;;7.63;;
77402;SDS011;66472;53.046;8.656;2023-04-06T22:24:03;10.10;;;8.03;;
77402;SDS011;66472;53.046;8.656;2023-04-06T22:28:58;13.40;;;8.30;;
77402;SDS011;66472;53.046;8.656;2023-04-06T22:33:54;11.23;;;7.53;;
77402;SDS011;66472;53.046;8.656;2023-04-06T22:38:49;11.23;;;7.88;;
77402;SDS011;66472;53.046;8.656;2023-04-06T22:43:44;11.77;;;8.17;;
77402;SDS011;66472;53.046;8.656;2023-04-06T22:48:40;13.80;;;7.50;;
77402;SDS011;66472;53.046;8.656;2023-04-06T22:53:35;12.57;;;7.93;;
77402;SDS011;66472;53.046;8.656;2023-04-06T22:58:30;9.83;;;7.90;;
77402;SDS011;66472;53.046;8.656;2023-04-06T23:03:25;12.25;;;8.43;;
77402;SDS011;66472;53.046;8.656;2023-04-06T23:08:21;14.95;;;7.80;;
77402;SDS011;66472;53.046;8.656;2023-04-06T23:13:16;14.50;;;7.35;;
77402;SDS011;66472;53.046;8.656;2023-04-06T23:18:11;13.27;;;8.37;;
77402;SDS011;66472;53.046;8.656;2023-04-06T23:23:06;10.60;;;7.75;;
77402;SDS011;66472;53.046;8.656;2023-04-06T23:28:02;9.67;;;7.67;;
77402;SDS011;66472;53.046;8.656;2023-04-06T23:32:57;9.70;;;7.50;;
77402;SDS011;66472;53.046;8.656;2023-04-06T23:37:52;11.65;;;8.52;;
77402;SDS011;66472;53.046;8.656;2023-04-06T23:42:47;12.20;;;7.87;;
77402;SDS011;66472;53.046;8.656;2023-04-06T23:47:43;10.75;;;7.32;;
77402;SDS011;66472;53.046;8.656;2023-04-06T23:52:39;15.63;;;8.07;;
77402;SDS011;66472;53.046;8.656;2023-04-06T23:57:35;17.17;;;8.63;;
